createdAt,value
2018-07-04T00:00:58.462Z,2.33
2018-07-04T00:03:38.149Z,1.90
2018-07-04T00:06:18.098Z,1.70
2018-07-04T00:08:57.797Z,2.30
2018-07-04T00:11:37.555Z,1.90
2018-07-04T00:14:17.238Z,1.80
2018-07-04T00:16:57.017Z,1.90
2018-07-04T00:19:36.777Z,2.30
2018-07-04T00:22:16.689Z,2.13
2018-07-04T00:24:56.597Z,2.47
2018-07-04T00:27:37.067Z,2.30
2018-07-04T00:30:16.911Z,2.10
2018-07-04T00:32:56.737Z,2.20
2018-07-04T00:35:36.591Z,2.13
2018-07-04T00:38:16.355Z,2.57
2018-07-04T00:40:56.218Z,2.80
2018-07-04T00:43:36.153Z,2.03
2018-07-04T00:46:15.922Z,1.90
2018-07-04T00:48:55.806Z,1.80
2018-07-04T00:51:35.699Z,2.60
2018-07-04T00:54:15.626Z,2.20
2018-07-04T00:56:55.419Z,2.07
2018-07-04T00:59:35.351Z,1.70
2018-07-04T01:02:15.275Z,1.70
2018-07-04T01:04:55.048Z,2.00
2018-07-04T01:07:34.969Z,1.83
2018-07-04T01:10:14.942Z,1.67
2018-07-04T01:12:54.741Z,1.80
2018-07-04T01:15:34.590Z,1.97
2018-07-04T01:18:14.497Z,1.50
2018-07-04T01:20:59.559Z,1.70
2018-07-04T01:23:39.378Z,1.87
2018-07-04T01:26:19.426Z,1.70
2018-07-04T01:28:59.188Z,2.30
2018-07-04T01:31:39.101Z,2.57
2018-07-04T01:34:18.988Z,2.50
2018-07-04T01:36:59.020Z,1.97
2018-07-04T01:39:38.886Z,1.90
2018-07-04T01:42:18.817Z,1.90
2018-07-04T01:44:58.599Z,1.93
2018-07-04T01:47:38.609Z,2.00
2018-07-04T01:50:18.622Z,2.03
2018-07-04T01:52:58.576Z,2.03
2018-07-04T01:55:38.477Z,1.97
2018-07-04T01:58:18.418Z,1.70
2018-07-04T02:00:57.937Z,2.00
2018-07-04T02:03:37.961Z,1.77
2018-07-04T02:06:17.631Z,1.97
2018-07-04T02:08:57.344Z,1.67
2018-07-04T02:11:37.112Z,2.20
2018-07-04T02:14:16.690Z,2.17
2018-07-04T02:16:56.598Z,2.10
2018-07-04T02:19:36.362Z,2.13
2018-07-04T02:22:16.201Z,2.13
2018-07-04T02:24:56.128Z,1.77
2018-07-04T02:27:35.889Z,1.90
2018-07-04T02:30:15.634Z,2.20
2018-07-04T02:32:55.675Z,2.27
2018-07-04T02:35:35.631Z,2.07
2018-07-04T02:38:15.422Z,2.20
2018-07-04T02:40:55.454Z,2.20
2018-07-04T02:43:35.302Z,2.10
2018-07-04T02:46:19.188Z,2.57
2018-07-04T02:48:59.110Z,2.60
2018-07-04T02:51:38.825Z,2.23
2018-07-04T02:54:18.805Z,2.20
2018-07-04T02:56:58.671Z,2.30
2018-07-04T02:59:38.535Z,2.40
2018-07-04T03:02:18.431Z,2.50
2018-07-04T03:04:58.291Z,2.00
2018-07-04T03:07:37.943Z,3.00
2018-07-04T03:10:17.854Z,2.40
2018-07-04T03:12:57.698Z,2.20
2018-07-04T03:15:37.564Z,2.00
2018-07-04T03:18:17.225Z,2.50
2018-07-04T03:20:56.955Z,2.10
2018-07-04T03:23:36.645Z,1.97
2018-07-04T03:26:16.556Z,2.33
2018-07-04T03:28:56.495Z,2.47
2018-07-04T03:31:36.558Z,2.73
2018-07-04T03:34:16.588Z,1.97
2018-07-04T03:36:56.321Z,1.70
2018-07-04T03:39:36.003Z,2.57
2018-07-04T03:42:15.525Z,2.07
2018-07-04T03:44:55.525Z,2.63
2018-07-04T03:47:35.499Z,2.47
2018-07-04T03:50:15.558Z,2.40
2018-07-04T03:52:55.627Z,2.53
2018-07-04T03:55:35.474Z,2.50
2018-07-04T03:58:15.388Z,2.30
2018-07-04T04:00:55.336Z,2.10
2018-07-04T04:03:35.402Z,2.30
2018-07-04T04:06:15.218Z,2.47
2018-07-04T04:08:55.006Z,2.50
2018-07-04T04:11:35.094Z,2.63
2018-07-04T04:14:14.739Z,2.60
2018-07-04T04:16:54.661Z,3.00
2018-07-04T04:19:35.319Z,3.20
2018-07-04T04:22:16.189Z,4.83
2018-07-04T04:24:56.129Z,2.93
2018-07-04T04:27:36.051Z,3.07
2018-07-04T04:30:15.775Z,2.90
2018-07-04T04:32:55.674Z,2.60
2018-07-04T04:35:35.731Z,2.67
2018-07-04T04:38:15.570Z,2.77
2018-07-04T04:40:55.469Z,2.90
2018-07-04T04:43:35.291Z,2.60
2018-07-04T04:46:15.018Z,3.70
2018-07-04T04:48:54.687Z,2.53
2018-07-04T04:51:34.453Z,2.37
2018-07-04T04:54:14.420Z,3.17
2018-07-04T04:56:55.059Z,2.93
2018-07-04T04:59:34.958Z,3.17
2018-07-04T05:02:15.046Z,3.00
2018-07-04T05:04:54.857Z,3.37
2018-07-04T05:07:34.725Z,3.23
2018-07-04T05:10:14.446Z,3.20
2018-07-04T05:12:54.329Z,3.23
2018-07-04T05:15:34.225Z,3.20
2018-07-04T05:18:14.116Z,3.10
2018-07-04T05:20:53.945Z,3.50
2018-07-04T05:23:33.809Z,3.50
2018-07-04T05:26:13.966Z,2.50
2018-07-04T05:28:54.015Z,2.80
2018-07-04T05:31:33.809Z,2.40
2018-07-04T05:34:13.710Z,3.37
2018-07-04T05:36:53.461Z,3.77
2018-07-04T05:39:33.286Z,2.80
2018-07-04T05:42:13.011Z,4.23
2018-07-04T05:44:52.853Z,3.53
2018-07-04T05:47:32.590Z,3.00
2018-07-04T05:50:12.244Z,3.30
2018-07-04T05:52:52.216Z,2.70
2018-07-04T05:55:32.009Z,3.33
2018-07-04T05:58:12.100Z,3.33
2018-07-04T06:00:52.073Z,3.10
2018-07-04T06:03:31.867Z,2.90
2018-07-04T06:06:12.122Z,3.73
2018-07-04T06:08:52.285Z,4.23
2018-07-04T06:11:31.946Z,3.43
2018-07-04T06:14:11.758Z,3.70
2018-07-04T06:16:51.677Z,5.13
2018-07-04T06:19:31.513Z,3.20
2018-07-04T06:22:11.449Z,3.40
2018-07-04T06:24:51.206Z,3.60
2018-07-04T06:27:31.154Z,3.17
2018-07-04T06:30:11.283Z,3.73
2018-07-04T06:32:51.135Z,4.40
2018-07-04T06:35:30.964Z,4.07
2018-07-04T06:37:58.415Z,4.20
2018-07-04T06:40:25.899Z,4.47
2018-07-04T06:42:53.553Z,4.30
2018-07-04T06:45:21.047Z,4.40
2018-07-04T06:47:48.602Z,4.17
2018-07-04T06:50:16.263Z,3.93
2018-07-04T06:52:43.727Z,4.77
2018-07-04T06:55:11.308Z,3.97
2018-07-04T06:57:38.918Z,4.30
2018-07-04T07:00:06.498Z,3.43
2018-07-04T07:02:34.109Z,2.73
2018-07-04T07:05:14.042Z,4.87
2018-07-04T07:07:54.175Z,4.03
2018-07-04T07:10:34.492Z,3.90
2018-07-04T07:13:14.363Z,3.70
2018-07-04T07:15:54.371Z,3.27
2018-07-04T07:18:34.068Z,3.90
2018-07-04T07:21:13.886Z,3.83
2018-07-04T07:23:53.613Z,3.63
2018-07-04T07:26:33.451Z,3.90
2018-07-04T07:29:13.365Z,4.10
2018-07-04T07:31:53.429Z,3.00
2018-07-04T07:34:33.141Z,4.17
2018-07-04T07:37:13.222Z,3.83
2018-07-04T07:39:53.058Z,4.30
2018-07-04T07:42:32.804Z,3.80
2018-07-04T07:45:12.825Z,3.20
2018-07-04T07:47:52.766Z,3.63
2018-07-04T07:50:32.545Z,3.23
2018-07-04T07:53:12.487Z,3.97
2018-07-04T07:55:52.542Z,3.80
2018-07-04T07:58:32.511Z,3.40
2018-07-04T08:01:12.208Z,3.50
2018-07-04T08:03:51.912Z,5.10
2018-07-04T08:06:31.734Z,3.60
2018-07-04T08:09:12.170Z,4.03
2018-07-04T08:11:51.772Z,2.70
2018-07-04T08:14:31.448Z,3.20
2018-07-04T08:17:11.304Z,5.77
2018-07-04T08:19:51.609Z,3.80
2018-07-04T08:22:31.444Z,3.13
2018-07-04T08:25:11.299Z,3.60
2018-07-04T08:27:51.366Z,2.80
2018-07-04T08:30:31.155Z,3.37
2018-07-04T08:33:11.097Z,3.60
2018-07-04T08:35:50.873Z,3.67
2018-07-04T08:38:30.733Z,4.73
2018-07-04T08:41:11.603Z,3.87
2018-07-04T08:43:51.514Z,4.00
2018-07-04T08:46:31.834Z,4.50
2018-07-04T08:49:11.732Z,5.00
2018-07-04T08:51:51.715Z,5.50
2018-07-04T08:54:31.485Z,4.30
2018-07-04T08:57:11.316Z,5.10
2018-07-04T08:59:51.238Z,4.80
2018-07-04T09:02:31.381Z,4.70
2018-07-04T09:05:11.348Z,4.30
2018-07-04T09:07:51.204Z,4.60
2018-07-04T09:10:31.243Z,3.67
2018-07-04T09:13:11.071Z,3.90
2018-07-04T09:15:52.624Z,3.40
2018-07-04T09:18:32.536Z,4.53
2018-07-04T09:21:12.913Z,3.77
2018-07-04T09:23:52.699Z,2.93
2018-07-04T09:26:32.470Z,3.10
2018-07-04T09:29:12.260Z,3.30
2018-07-04T09:31:52.127Z,2.50
2018-07-04T09:34:32.088Z,3.10
2018-07-04T09:37:12.599Z,3.00
2018-07-04T09:39:52.413Z,2.37
2018-07-04T09:42:32.382Z,2.60
2018-07-04T09:45:12.305Z,2.67
2018-07-04T09:47:52.183Z,2.40
2018-07-04T09:50:32.137Z,2.23
2018-07-04T09:53:12.164Z,1.90
2018-07-04T09:55:52.361Z,1.90
2018-07-04T09:58:32.165Z,2.13
2018-07-04T10:01:17.265Z,2.20
2018-07-04T10:03:57.031Z,2.10
2018-07-04T10:06:36.925Z,1.50
2018-07-04T10:09:16.757Z,2.20
2018-07-04T10:11:56.616Z,2.63
2018-07-04T10:14:36.420Z,1.80
2018-07-04T10:17:16.329Z,2.07
2018-07-04T10:19:56.172Z,1.80
2018-07-04T10:22:35.903Z,2.13
2018-07-04T10:25:15.540Z,1.63
2018-07-04T10:27:55.237Z,2.60
2018-07-04T10:30:35.387Z,1.77
2018-07-04T10:33:15.316Z,1.87
2018-07-04T10:35:55.037Z,1.70
2018-07-04T10:38:35.014Z,2.00
2018-07-04T10:41:14.801Z,3.47
2018-07-04T10:43:54.770Z,1.60
2018-07-04T10:46:34.638Z,2.20
2018-07-04T10:49:14.500Z,1.40
2018-07-04T10:51:54.710Z,2.17
2018-07-04T10:54:34.668Z,1.93
2018-07-04T10:57:14.609Z,1.37
2018-07-04T10:59:54.497Z,1.40
2018-07-04T11:02:34.514Z,1.67
2018-07-04T11:05:14.375Z,1.50
2018-07-04T11:07:54.321Z,1.80
2018-07-04T11:10:34.318Z,1.83
2018-07-04T11:13:14.196Z,1.80
2018-07-04T11:15:53.999Z,1.80
2018-07-04T11:18:33.794Z,1.87
2018-07-04T11:21:13.618Z,1.93
2018-07-04T11:23:53.426Z,2.13
2018-07-04T11:26:33.430Z,2.27
2018-07-04T11:29:13.225Z,2.10
2018-07-04T11:31:53.067Z,1.70
2018-07-04T11:34:32.770Z,1.83
2018-07-04T11:37:12.509Z,1.60
2018-07-04T11:39:52.141Z,1.83
2018-07-04T11:42:32.230Z,2.50
2018-07-04T11:45:12.111Z,1.60
2018-07-04T11:47:39.756Z,1.70
2018-07-04T11:50:07.229Z,1.70
2018-07-04T11:52:34.688Z,2.70
2018-07-04T11:55:02.205Z,2.00
2018-07-04T11:57:29.659Z,2.67
2018-07-04T11:59:57.066Z,2.13
2018-07-04T12:02:24.820Z,1.77
2018-07-04T12:05:04.837Z,1.60
2018-07-04T12:07:32.648Z,1.40
2018-07-04T12:10:00.143Z,1.80
2018-07-04T12:12:27.837Z,2.50
2018-07-04T12:14:55.353Z,2.37
2018-07-04T12:17:22.767Z,1.60
2018-07-04T12:19:50.257Z,1.80
2018-07-04T12:22:17.932Z,2.20
2018-07-04T12:24:45.556Z,2.43
2018-07-04T12:27:12.979Z,1.57
2018-07-04T12:29:40.433Z,1.30
2018-07-04T12:32:07.985Z,1.57
2018-07-04T12:34:35.677Z,2.40
2018-07-04T12:37:03.248Z,1.90
2018-07-04T12:39:31.081Z,1.93
2018-07-04T12:41:58.642Z,1.70
2018-07-04T12:44:26.323Z,2.00
2018-07-04T12:46:53.900Z,1.43
2018-07-04T12:49:27.515Z,1.40
2018-07-04T12:51:55.216Z,1.20
2018-07-04T12:54:27.971Z,1.37
2018-07-04T12:57:08.217Z,1.63
2018-07-04T12:59:48.073Z,1.27
2018-07-04T13:02:27.882Z,1.40
2018-07-04T13:05:07.825Z,1.40
2018-07-04T13:07:47.910Z,1.30
2018-07-04T13:10:27.587Z,1.97
2018-07-04T13:13:07.589Z,1.77
2018-07-04T13:15:47.436Z,1.00
2018-07-04T13:18:27.269Z,1.57
2018-07-04T13:21:06.796Z,1.57
2018-07-04T13:23:46.580Z,1.30
2018-07-04T13:26:26.300Z,1.03
2018-07-04T13:29:06.181Z,1.70
2018-07-04T13:31:46.024Z,2.27
2018-07-04T13:34:25.942Z,1.70
2018-07-04T13:37:05.670Z,1.60
2018-07-04T13:39:45.356Z,1.10
2018-07-04T13:42:25.517Z,1.30
2018-07-04T13:45:05.471Z,1.50
2018-07-04T13:47:45.725Z,1.87
2018-07-04T13:50:25.558Z,1.83
2018-07-04T13:53:05.261Z,2.27
2018-07-04T13:55:45.153Z,1.97
2018-07-04T13:58:24.834Z,1.40
2018-07-04T14:01:06.510Z,1.13
2018-07-04T14:03:52.062Z,1.83
2018-07-04T14:06:32.247Z,2.37
2018-07-04T14:09:12.031Z,1.27
2018-07-04T14:11:52.194Z,1.30
2018-07-04T14:14:32.239Z,1.40
2018-07-04T14:17:12.089Z,2.17
2018-07-04T14:19:51.999Z,1.50
2018-07-04T14:22:31.790Z,1.87
2018-07-04T14:25:11.610Z,2.13
2018-07-04T14:27:51.294Z,1.50
2018-07-04T14:30:31.005Z,2.10
2018-07-04T14:33:10.928Z,1.97
2018-07-04T14:35:51.007Z,1.80
2018-07-04T14:38:30.788Z,2.20
2018-07-04T14:41:10.769Z,2.40
2018-07-04T14:43:50.599Z,2.93
2018-07-04T14:46:30.365Z,2.47
2018-07-04T14:49:11.049Z,2.83
2018-07-04T14:51:51.043Z,3.27
2018-07-04T14:54:30.865Z,3.97
2018-07-04T14:57:11.030Z,3.10
2018-07-04T14:59:50.865Z,3.00
2018-07-04T15:02:30.974Z,2.77
2018-07-04T15:05:10.681Z,3.10
2018-07-04T15:07:50.579Z,2.70
2018-07-04T15:10:30.465Z,3.50
2018-07-04T15:13:10.420Z,3.37
2018-07-04T15:15:50.155Z,3.10
2018-07-04T15:18:29.928Z,3.90
2018-07-04T15:21:09.791Z,2.40
2018-07-04T15:23:49.649Z,2.63
2018-07-04T15:26:29.656Z,3.90
2018-07-04T15:29:09.697Z,2.97
2018-07-04T15:31:49.709Z,3.07
2018-07-04T15:34:29.779Z,3.30
2018-07-04T15:37:09.659Z,2.70
2018-07-04T15:39:50.421Z,3.80
2018-07-04T15:42:30.335Z,3.70
2018-07-04T15:45:10.627Z,3.90
2018-07-04T15:47:50.383Z,3.20
2018-07-04T15:50:30.346Z,3.50
2018-07-04T15:53:10.891Z,3.20
2018-07-04T15:55:50.988Z,3.40
2018-07-04T15:58:30.812Z,3.50
2018-07-04T16:01:10.622Z,4.00
2018-07-04T16:03:50.612Z,2.77
2018-07-04T16:06:30.290Z,4.97
2018-07-04T16:09:10.057Z,3.10
2018-07-04T16:11:49.849Z,2.70
2018-07-04T16:14:29.697Z,3.17
2018-07-04T16:17:09.632Z,2.80
2018-07-04T16:19:49.479Z,2.70
2018-07-04T16:22:29.258Z,3.10
2018-07-04T16:25:09.187Z,3.17
2018-07-04T16:27:49.017Z,3.17
2018-07-04T16:30:29.010Z,3.07
2018-07-04T16:33:08.816Z,3.40
2018-07-04T16:35:49.169Z,3.50
2018-07-04T16:38:29.066Z,3.30
2018-07-04T16:41:08.904Z,3.70
2018-07-04T16:43:48.806Z,4.70
2018-07-04T16:46:28.743Z,4.20
2018-07-04T16:49:08.775Z,4.33
2018-07-04T16:51:48.535Z,3.97
2018-07-04T16:54:28.503Z,3.50
2018-07-04T16:57:08.250Z,3.80
2018-07-04T16:59:49.150Z,3.40
2018-07-04T17:02:29.669Z,3.90
2018-07-04T17:05:09.583Z,3.20
2018-07-04T17:07:49.677Z,4.30
2018-07-04T17:10:29.546Z,3.70
2018-07-04T17:13:10.315Z,4.93
2018-07-04T17:15:50.224Z,3.57
2018-07-04T17:18:30.229Z,3.90
2018-07-04T17:21:10.057Z,3.80
2018-07-04T17:23:50.709Z,3.60
2018-07-04T17:26:30.433Z,3.00
2018-07-04T17:29:10.625Z,2.60
2018-07-04T17:31:51.316Z,2.90
2018-07-04T17:34:32.151Z,2.83
2018-07-04T17:37:12.143Z,2.77
2018-07-04T17:39:51.962Z,2.50
2018-07-04T17:42:31.926Z,3.17
2018-07-04T17:45:11.854Z,2.07
2018-07-04T17:47:51.643Z,2.93
2018-07-04T17:50:31.868Z,3.67
2018-07-04T17:53:11.481Z,2.80
2018-07-04T17:55:51.183Z,2.40
2018-07-04T17:58:31.578Z,3.10
2018-07-04T18:01:11.382Z,2.50
2018-07-04T18:03:51.331Z,2.40
2018-07-04T18:06:31.320Z,2.70
2018-07-04T18:09:11.371Z,2.60
2018-07-04T18:11:51.243Z,2.37
2018-07-04T18:14:31.167Z,2.80
2018-07-04T18:17:11.061Z,3.53
2018-07-04T18:19:50.954Z,3.50
2018-07-04T18:22:31.238Z,11.10
2018-07-04T18:25:11.034Z,14.60
2018-07-04T18:27:51.213Z,9.70
2018-07-04T18:30:31.182Z,3.33
2018-07-04T18:33:10.820Z,4.03
2018-07-04T18:35:50.562Z,3.30
2018-07-04T18:38:30.380Z,3.17
2018-07-04T18:41:10.077Z,3.53
2018-07-04T18:43:50.565Z,3.03
2018-07-04T18:46:30.232Z,3.20
2018-07-04T18:49:09.885Z,2.67
2018-07-04T18:51:49.586Z,2.77
2018-07-04T18:54:29.315Z,3.80
2018-07-04T18:57:09.225Z,3.57
2018-07-04T18:59:49.143Z,2.60
2018-07-04T19:02:29.007Z,2.57
2018-07-04T19:05:08.838Z,2.53
2018-07-04T19:07:48.962Z,3.00
2018-07-04T19:10:28.674Z,2.60
2018-07-04T19:13:08.564Z,2.57
2018-07-04T19:15:49.103Z,1.97
2018-07-04T19:18:29.230Z,2.60
2018-07-04T19:21:09.092Z,2.23
2018-07-04T19:23:49.125Z,2.50
2018-07-04T19:26:29.154Z,2.50
2018-07-04T19:29:08.989Z,2.83
2018-07-04T19:31:48.734Z,2.50
2018-07-04T19:34:28.621Z,2.97
2018-07-04T19:37:08.435Z,3.33
2018-07-04T19:39:48.385Z,4.50
2018-07-04T19:42:28.434Z,5.47
2018-07-04T19:45:08.093Z,5.13
2018-07-04T19:47:48.262Z,3.30
2018-07-04T19:50:28.154Z,3.83
2018-07-04T19:53:08.151Z,3.90
2018-07-04T19:55:47.941Z,4.53
2018-07-04T19:58:27.822Z,2.93
2018-07-04T20:01:07.576Z,4.40
2018-07-04T20:03:47.390Z,4.27
2018-07-04T20:06:27.393Z,3.60
2018-07-04T20:09:07.236Z,3.37
2018-07-04T20:11:47.019Z,3.37
2018-07-04T20:14:26.851Z,3.53
2018-07-04T20:17:06.686Z,3.57
2018-07-04T20:19:46.897Z,4.33
2018-07-04T20:22:26.622Z,3.60
2018-07-04T20:25:06.383Z,2.93
2018-07-04T20:27:46.249Z,3.17
2018-07-04T20:30:26.161Z,3.33
2018-07-04T20:33:05.852Z,2.90
2018-07-04T20:35:45.484Z,3.13
2018-07-04T20:38:25.398Z,3.27
2018-07-04T20:41:05.415Z,3.37
2018-07-04T20:43:45.245Z,3.60
2018-07-04T20:46:25.016Z,3.10
2018-07-04T20:49:04.895Z,3.27
2018-07-04T20:51:44.793Z,2.90
2018-07-04T20:54:24.783Z,2.80
2018-07-04T20:57:04.515Z,2.67
2018-07-04T20:59:44.382Z,3.23
2018-07-04T21:02:24.345Z,3.63
2018-07-04T21:05:04.100Z,3.77
2018-07-04T21:07:43.902Z,3.53
2018-07-04T21:10:23.880Z,3.43
2018-07-04T21:13:03.662Z,3.37
2018-07-04T21:15:43.405Z,3.37
2018-07-04T21:18:23.458Z,3.63
2018-07-04T21:21:03.227Z,3.20
2018-07-04T21:23:43.336Z,3.67
2018-07-04T21:26:23.325Z,3.60
2018-07-04T21:29:03.108Z,3.17
2018-07-04T21:31:42.921Z,3.40
2018-07-04T21:34:22.736Z,3.27
2018-07-04T21:37:02.614Z,3.07
2018-07-04T21:39:42.385Z,4.87
2018-07-04T21:42:22.571Z,4.10
2018-07-04T21:45:02.664Z,3.27
2018-07-04T21:47:42.674Z,3.37
2018-07-04T21:50:22.609Z,3.50
2018-07-04T21:53:02.487Z,3.17
2018-07-04T21:55:42.429Z,3.33
2018-07-04T21:58:22.154Z,3.57
2018-07-04T22:01:02.052Z,3.30
2018-07-04T22:03:41.639Z,3.60
2018-07-04T22:06:21.355Z,3.40
2018-07-04T22:09:01.270Z,4.27
2018-07-04T22:11:41.287Z,3.40
2018-07-04T22:14:21.301Z,3.47
2018-07-04T22:17:01.086Z,4.13
2018-07-04T22:19:41.008Z,3.90
2018-07-04T22:22:20.901Z,3.70
2018-07-04T22:25:00.643Z,3.33
2018-07-04T22:27:40.486Z,4.27
2018-07-04T22:30:20.089Z,3.80
2018-07-04T22:32:59.927Z,4.13
2018-07-04T22:35:39.693Z,4.67
2018-07-04T22:38:19.566Z,4.17
2018-07-04T22:40:59.382Z,4.83
2018-07-04T22:43:39.154Z,4.67
2018-07-04T22:46:18.976Z,3.70
2018-07-04T22:48:58.915Z,3.37
2018-07-04T22:51:38.674Z,3.60
2018-07-04T22:54:18.634Z,3.93
2018-07-04T22:56:58.574Z,4.40
2018-07-04T22:59:38.441Z,4.83
2018-07-04T23:02:18.387Z,3.73
2018-07-04T23:04:58.134Z,4.10
2018-07-04T23:07:38.129Z,3.80
2018-07-04T23:10:18.054Z,4.63
2018-07-04T23:12:57.967Z,3.90
2018-07-04T23:15:37.793Z,4.30
2018-07-04T23:18:17.680Z,4.47
2018-07-04T23:20:57.910Z,4.87
2018-07-04T23:23:37.667Z,4.27
2018-07-04T23:26:17.450Z,4.40
2018-07-04T23:28:57.253Z,4.23
2018-07-04T23:31:37.098Z,5.13
2018-07-04T23:34:16.872Z,5.10
2018-07-04T23:36:56.736Z,5.20
2018-07-04T23:39:36.510Z,4.87
2018-07-04T23:42:16.273Z,4.93
2018-07-04T23:44:56.045Z,5.10
2018-07-04T23:47:35.913Z,4.50
2018-07-04T23:50:15.588Z,4.47
2018-07-04T23:52:55.263Z,6.10
2018-07-04T23:55:34.973Z,5.40
2018-07-04T23:58:14.765Z,4.67
